Time;durP1;ratioP1;P1;durP2;ratioP2;P2;SDS_P1;SDS_P2;PMS_P1;PMS_P2;Temp;Humidity;BMP_temperature;BMP_pressure;BME280_temperature;BME280_humidity;BME280_pressure;Samples;Min_cycle;Max_cycle;Signal;HPM_P1;HPM_P2
2021/03/09 00:02:07;;;;;;;32.60;11.40;;;;;;;-1.43;78.73;100740.46;1787125;78;20904;-77
2021/03/09 00:04:32;;;;;;;31.33;10.50;;;;;;;-1.38;78.72;100744.16;1788990;78;21040;-77
2021/03/09 00:06:58;;;;;;;28.03;9.90;;;;;;;-1.37;78.55;100740.20;1794399;78;22816;-78
2021/03/09 00:09:24;;;;;;;31.63;11.23;;;;;;;-1.36;78.44;100741.06;1785623;78;22018;-78
2021/03/09 00:11:50;;;;;;;29.90;10.97;;;;;;;-1.51;79.08;100740.81;1789077;78;21308;-78
2021/03/09 00:14:15;;;;;;;28.80;9.93;;;;;;;-1.47;79.19;100743.64;1790563;78;21052;-78
2021/03/09 00:16:41;;;;;;;29.40;10.93;;;;;;;-1.50;79.37;100741.19;1789397;78;20966;-78
2021/03/09 00:19:07;;;;;;;27.20;10.10;;;;;;;-1.43;79.12;100740.46;1792434;78;20973;-76
2021/03/09 00:21:33;;;;;;;27.30;10.43;;;;;;;-1.51;79.54;100743.41;1790685;78;21132;-77
2021/03/09 00:26:39;;;;;;;26.97;10.53;;;;;;;-1.55;79.76;100743.13;1787647;78;21796;-75
2021/03/09 00:29:04;;;;;;;31.97;10.65;;;;;;;-1.52;79.82;100745.59;1792120;78;21575;-76
2021/03/09 00:31:30;;;;;;;28.63;10.90;;;;;;;-1.58;80.04;100745.85;1792121;78;21549;-75
2021/03/09 00:33:56;;;;;;;29.93;11.10;;;;;;;-1.60;80.07;100743.78;1786570;78;21084;-75
2021/03/09 00:36:22;;;;;;;26.43;10.63;;;;;;;-1.62;80.19;100750.76;1790240;78;20932;-75
2021/03/09 00:38:47;;;;;;;30.47;11.70;;;;;;;-1.69;80.41;100750.64;1791238;78;21029;-75
2021/03/09 00:41:13;;;;;;;28.10;10.73;;;;;;;-1.75;80.62;100752.19;1774436;78;20977;-77
2021/03/09 00:43:39;;;;;;;26.43;10.37;;;;;;;-1.78;80.87;100750.55;1788073;78;21346;-75
2021/03/09 00:46:05;;;;;;;27.17;10.73;;;;;;;-1.76;80.78;100750.48;1790175;78;21546;-75
2021/03/09 00:48:36;;;;;;;30.00;10.00;;;;;;;-1.70;80.57;100741.17;1790057;78;21897;-76
2021/03/09 00:51:02;;;;;;;27.10;10.00;;;;;;;-1.70;80.60;100738.59;1786541;78;21444;-76
2021/03/09 00:53:28;;;;;;;33.05;10.88;;;;;;;-1.74;80.71;100743.06;1793501;78;21150;-76
2021/03/09 00:55:54;;;;;;;31.03;11.43;;;;;;;-1.69;80.59;100738.98;1788324;78;20899;-76
2021/03/09 00:58:19;;;;;;;29.20;10.97;;;;;;;-1.71;80.89;100740.77;1793194;78;21016;-77
2021/03/09 01:00:45;;;;;;;34.03;11.00;;;;;;;-1.74;80.90;100746.08;1797790;78;21061;-76
2021/03/09 01:03:11;;;;;;;37.80;13.20;;;;;;;-1.77;80.92;100747.50;1787990;78;20921;-78
2021/03/09 01:05:37;;;;;;;30.77;11.27;;;;;;;-1.87;81.40;100742.69;1791097;78;21405;-77
2021/03/09 01:08:03;;;;;;;33.13;11.10;;;;;;;-1.88;81.35;100747.50;1788723;78;21007;-75
2021/03/09 01:10:28;;;;;;;34.38;11.53;;;;;;;-1.86;81.13;100749.56;1761329;80;21164;-77
2021/03/09 01:12:54;;;;;;;31.37;11.43;;;;;;;-1.99;81.61;100746.63;1760741;80;20911;-77
2021/03/09 01:15:20;;;;;;;31.57;11.60;;;;;;;-1.89;81.45;100748.39;1758933;80;21227;-77
2021/03/09 01:17:46;;;;;;;30.80;11.63;;;;;;;-1.91;81.57;100749.34;1755049;80;20928;-78
2021/03/09 01:20:13;;;;;;;33.07;10.73;;;;;;;-1.94;81.68;100743.86;1758568;80;21023;-78
2021/03/09 01:22:38;;;;;;;32.05;11.25;;;;;;;-1.86;81.61;100748.27;1756684;80;21233;-80
2021/03/09 01:25:07;;;;;;;29.67;9.40;;;;;;;-1.84;81.74;100746.45;1758598;80;20996;-79
2021/03/09 01:27:32;;;;;;;37.85;12.70;;;;;;;-1.76;81.65;100741.42;1760644;80;21262;-79
2021/03/09 01:29:58;;;;;;;32.87;11.50;;;;;;;-1.84;81.77;100738.69;1760134;80;20964;-78
2021/03/09 01:32:24;;;;;;;36.47;11.93;;;;;;;-1.70;81.74;100741.17;1763161;80;20947;-79
2021/03/09 01:34:50;;;;;;;31.27;11.83;;;;;;;-1.68;81.52;100732.88;1755390;80;21187;-77
2021/03/09 01:37:15;;;;;;;29.90;10.70;;;;;;;-1.65;81.12;100728.87;1760456;80;21041;-78
2021/03/09 01:39:41;;;;;;;32.13;10.67;;;;;;;-1.67;81.02;100731.98;1762601;80;21566;-77
2021/03/09 01:42:07;;;;;;;29.77;10.53;;;;;;;-1.78;81.31;100734.19;1756811;80;21753;-77
2021/03/09 01:44:34;;;;;;;35.38;11.85;;;;;;;-1.91;81.66;100732.09;1764212;79;21601;-77
2021/03/09 01:47:01;;;;;;;37.38;11.73;;;;;;;-2.00;82.27;100732.46;1758771;80;21588;-77
2021/03/09 01:49:35;;;;;;;;;;;;;;;-1.99;82.22;100739.30;1761940;80;21150;-77
2021/03/09 01:52:02;;;;;;;30.85;10.43;;;;;;;-2.01;82.34;100738.53;1756682;80;20276;-79
2021/03/09 01:54:28;;;;;;;27.73;10.53;;;;;;;-2.10;82.76;100744.07;1758458;80;21356;-80
2021/03/09 01:56:53;;;;;;;36.63;12.27;;;;;;;-2.15;82.85;100742.95;1757686;80;21048;-79
2021/03/09 01:59:19;;;;;;;33.80;11.57;;;;;;;-2.21;83.01;100744.48;1758752;80;21519;-79
2021/03/09 02:01:45;;;;;;;31.20;11.27;;;;;;;-2.24;83.01;100748.02;1761859;80;20899;-79
2021/03/09 02:04:11;;;;;;;32.27;11.87;;;;;;;-2.20;83.12;100744.42;1759649;80;20999;-79
2021/03/09 02:06:37;;;;;;;35.40;12.18;;;;;;;-2.11;82.69;100742.37;1757733;80;21226;-79
2021/03/09 02:09:05;;;;;;;40.08;13.72;;;;;;;-2.22;83.10;100744.95;1772143;78;21219;-79
2021/03/09 02:11:57;;;;;;;;;;;;;;;-2.25;83.41;100747.66;1783090;79;21669;-79
2021/03/09 02:15:03;;;;;;;32.30;11.10;;;;;;;-2.25;83.48;100751.53;1785819;78;20246;-79
2021/03/09 02:17:52;;;;;;;34.20;11.60;;;;;;;-2.28;83.57;100747.77;1791634;78;21184;-79
2021/03/09 02:20:47;;;;;;;27.90;9.73;;;;;;;-2.33;83.82;100751.00;1783993;78;21207;-80
2021/03/09 02:23:43;;;;;;;33.02;11.15;;;;;;;-2.25;83.46;100746.79;1788029;78;21224;-80
2021/03/09 02:26:33;;;;;;;30.48;10.68;;;;;;;-2.30;83.70;100752.17;1788834;78;21590;-80
2021/03/09 02:29:38;;;;;;;28.45;10.05;;;;;;;-2.22;83.42;100751.41;1788900;78;21220;-80
2021/03/09 02:32:04;;;;;;;26.40;9.95;;;;;;;-2.28;83.41;100747.77;1789112;78;21132;-81
2021/03/09 02:34:32;;;;;;;30.30;10.60;;;;;;;-2.23;83.32;100749.72;1792033;78;20989;-80
2021/03/09 02:36:58;;;;;;;23.52;9.15;;;;;;;-2.23;83.19;100742.42;1788858;78;21173;-81
2021/03/09 02:39:24;;;;;;;33.28;11.15;;;;;;;-2.29;83.56;100756.42;1786483;78;21768;-81
2021/03/09 02:41:51;;;;;;;33.53;11.75;;;;;;;-2.33;83.62;100748.41;1788435;78;21192;-80
2021/03/09 02:44:21;;;;;;;31.95;10.23;;;;;;;-2.44;84.12;100750.54;1745661;79;21215;-82
2021/03/09 02:46:48;;;;;;;31.87;11.00;;;;;;;-2.42;84.06;100756.52;1787220;78;21172;-82
2021/03/09 02:49:14;;;;;;;32.00;10.15;;;;;;;-2.46;84.39;100763.53;1787010;78;21128;-82
2021/03/09 02:51:42;;;;;;;28.92;10.35;;;;;;;-2.45;84.19;100759.22;1750912;78;21215;-81
2021/03/09 02:54:09;;;;;;;29.18;10.55;;;;;;;-2.38;84.04;100760.66;1790248;78;21198;-81
2021/03/09 02:56:38;;;;;;;25.23;9.13;;;;;;;-2.32;83.76;100764.30;1785477;78;21142;-81
2021/03/09 02:59:07;;;;;;;26.87;10.25;;;;;;;-2.29;83.67;100760.77;1790229;78;21764;-81
2021/03/09 03:01:33;;;;;;;32.65;10.45;;;;;;;-2.19;83.40;100764.66;1791904;78;21140;-81
2021/03/09 03:03:58;;;;;;;28.07;9.97;;;;;;;-2.12;83.14;100769.17;1791249;78;21344;-81
2021/03/09 03:06:24;;;;;;;31.53;10.53;;;;;;;-1.89;82.90;100766.52;1791394;78;21853;-81
2021/03/09 03:08:50;;;;;;;27.13;10.30;;;;;;;-1.85;81.99;100769.37;1789007;78;21289;-80
2021/03/09 03:11:16;;;;;;;29.33;10.50;;;;;;;-1.89;81.84;100766.52;1792644;78;20974;-80
2021/03/09 03:13:42;;;;;;;27.30;9.97;;;;;;;-1.91;81.75;100769.63;1789075;78;21032;-80
2021/03/09 03:16:11;;;;;;;28.52;10.03;;;;;;;-1.92;81.54;100765.34;1785535;78;21196;-80
2021/03/09 03:18:41;;;;;;;27.65;9.55;;;;;;;-1.97;81.58;100765.98;1789402;78;21172;-81
2021/03/09 03:21:11;;;;;;;30.23;10.38;;;;;;;-1.93;81.61;100762.35;1787627;78;21794;-81
2021/03/09 03:23:38;;;;;;;22.58;8.60;;;;;;;-1.87;81.38;100764.70;1768144;78;21196;-80
2021/03/09 03:26:05;;;;;;;27.17;9.60;;;;;;;-1.85;81.16;100765.50;1785529;78;21193;-80
2021/03/09 03:28:32;;;;;;;23.85;9.93;;;;;;;-1.84;81.02;100768.45;1786194;78;21172;-80
2021/03/09 03:30:58;;;;;;;28.42;9.85;;;;;;;-1.77;80.87;100766.91;1784233;78;21583;-80
2021/03/09 03:33:23;;;;;;;29.53;10.37;;;;;;;-1.75;80.75;100771.60;1789500;78;20911;-81
2021/03/09 03:35:49;;;;;;;31.83;9.33;;;;;;;-1.79;80.58;100767.44;1790653;78;20999;-81
2021/03/09 03:38:16;;;;;;;26.63;10.10;;;;;;;-1.84;80.67;100768.45;1791192;78;21585;-80
2021/03/09 03:40:42;;;;;;;24.40;9.25;;;;;;;-1.77;80.53;100766.91;1790727;78;22009;-80
2021/03/09 03:43:08;;;;;;;24.80;10.37;;;;;;;-1.81;80.26;100772.22;1789385;78;21236;-80
2021/03/09 03:45:34;;;;;;;27.50;9.80;;;;;;;-1.86;80.33;100766.39;1790568;78;21036;-80
2021/03/09 03:48:00;;;;;;;30.23;11.30;;;;;;;-1.93;80.44;100769.28;1787673;78;21041;-80
2021/03/09 03:50:26;;;;;;;27.97;10.57;;;;;;;-2.09;80.87;100774.23;1789767;78;20952;-80
2021/03/09 03:53:17;;;;;;;25.60;9.57;;;;;;;-2.11;81.20;100770.41;1785753;78;21503;-80
2021/03/09 03:56:01;;;;;;;24.00;9.20;;;;;;;-2.09;81.27;100769.88;1786431;78;21553;-80
2021/03/09 03:59:04;;;;;;;25.88;10.15;;;;;;;-2.10;81.16;100772.53;1788785;78;21202;-77
2021/03/09 04:01:30;;;;;;;26.77;9.38;;;;;;;-2.17;81.21;100775.36;1788357;78;21168;-76
2021/03/09 04:03:56;;;;;;;26.93;9.97;;;;;;;-2.26;81.67;100779.59;1789547;78;21097;-76
2021/03/09 04:06:25;;;;;;;;;;;;;;;-2.27;81.77;100777.06;1823313;77;21173;-77
2021/03/09 04:08:51;;;;;;;25.62;8.65;;;;;;;-2.29;81.84;100777.58;1829128;77;20292;-78
2021/03/09 04:11:17;;;;;;;26.47;10.60;;;;;;;-2.25;81.77;100783.01;1824752;78;21577;-77
2021/03/09 04:13:43;;;;;;;26.33;10.27;;;;;;;-2.22;81.48;100784.19;1822823;78;22032;-76
2021/03/09 04:16:10;;;;;;;29.80;9.65;;;;;;;-2.26;81.50;100779.59;1822082;78;21153;-75
2021/03/09 04:18:36;;;;;;;27.65;10.23;;;;;;;-2.23;81.31;100779.47;1824715;78;21911;-77
2021/03/09 04:21:02;;;;;;;29.18;11.48;;;;;;;-2.33;81.40;100777.30;1817354;78;21137;-76
2021/03/09 04:23:28;;;;;;;31.50;10.63;;;;;;;-2.44;81.86;100781.58;1798667;79;20996;-77
2021/03/09 04:25:54;;;;;;;25.90;9.73;;;;;;;-2.50;81.82;100766.28;1781204;78;20959;-78
2021/03/09 04:28:19;;;;;;;24.70;9.20;;;;;;;-2.39;81.71;100775.34;1828855;78;21038;-79
2021/03/09 04:30:45;;;;;;;24.33;9.87;;;;;;;-2.32;81.62;100775.94;1808512;78;21176;-79
2021/03/09 04:33:11;;;;;;;27.40;9.70;;;;;;;-2.30;81.49;100768.98;1796452;78;20909;-78
2021/03/09 04:35:37;;;;;;;27.97;10.20;;;;;;;-2.20;81.10;100772.89;1826388;78;21004;-78
2021/03/09 04:38:03;;;;;;;27.07;9.55;;;;;;;-2.10;80.77;100764.77;1796639;79;21227;-78
2021/03/09 04:40:30;;;;;;;25.47;9.90;;;;;;;-2.07;80.20;100769.83;1790030;79;21012;-79
2021/03/09 04:42:56;;;;;;;24.37;9.43;;;;;;;-1.97;80.01;100765.13;1786218;79;21239;-79
2021/03/09 04:45:22;;;;;;;21.97;8.60;;;;;;;-1.92;79.73;100765.34;1730925;79;21938;-79
2021/03/09 04:47:48;;;;;;;22.53;8.77;;;;;;;-1.84;79.54;100759.86;1835710;77;22015;-79
2021/03/09 04:50:15;;;;;;;22.20;8.53;;;;;;;-1.76;79.09;100768.61;1788975;78;21015;-80
2021/03/09 04:52:47;;;;;;;19.27;7.80;;;;;;;-1.70;78.58;100759.30;1767697;79;21160;-78
2021/03/09 04:55:22;;;;;;;16.60;6.53;;;;;;;-1.66;77.77;100760.88;1801239;78;21195;-79
2021/03/09 04:57:48;;;;;;;21.12;7.47;;;;;;;-1.61;77.71;100762.81;1824363;78;21175;-79
2021/03/09 05:00:16;;;;;;;20.03;7.47;;;;;;;-1.56;77.43;100762.16;1822063;78;20951;-78
2021/03/09 05:02:42;;;;;;;19.40;7.95;;;;;;;-1.52;77.27;100761.59;1828560;78;21248;-78
2021/03/09 05:05:09;;;;;;;21.45;7.75;;;;;;;-1.45;76.95;100766.43;1828999;78;21674;-78
2021/03/09 05:07:35;;;;;;;16.32;5.53;;;;;;;-1.40;76.76;100768.00;1775732;79;21603;-78
2021/03/09 05:10:01;;;;;;;21.87;8.23;;;;;;;-1.36;76.42;100767.80;1779110;79;21300;-77
2021/03/09 05:12:27;;;;;;;23.23;8.13;;;;;;;-1.36;76.08;100770.86;1824705;78;21508;-79
2021/03/09 05:14:52;;;;;;;21.03;8.67;;;;;;;-1.43;75.71;100775.90;1811784;78;20904;-78
2021/03/09 05:17:18;;;;;;;27.70;9.50;;;;;;;-1.48;76.17;100774.33;1821885;78;21081;-78
2021/03/09 05:19:46;;;;;;;22.43;9.17;;;;;;;-1.59;76.12;100778.28;1788060;79;21351;-78
2021/03/09 05:22:12;;;;;;;26.55;9.98;;;;;;;-1.64;76.55;100782.36;1794070;79;21508;-77
2021/03/09 05:24:37;;;;;;;26.97;10.20;;;;;;;-1.68;76.54;100789.41;1781907;79;21009;-78
2021/03/09 05:27:04;;;;;;;30.33;9.83;;;;;;;-1.64;76.62;100790.13;1818941;78;20978;-83
2021/03/09 05:29:30;;;;;;;27.65;10.20;;;;;;;-1.68;76.63;100789.84;1785634;79;21899;-78
2021/03/09 05:31:56;;;;;;;23.07;9.23;;;;;;;-1.68;76.65;100787.26;1820615;78;21972;-81
2021/03/09 05:34:22;;;;;;;29.07;8.80;;;;;;;-1.66;76.76;100790.65;1824773;78;20943;-79
2021/03/09 05:36:49;;;;;;;25.57;9.87;;;;;;;-1.65;76.70;100789.72;1800581;79;20947;-80
2021/03/09 05:39:15;;;;;;;23.12;8.63;;;;;;;-1.60;76.80;100792.13;1822874;78;21174;-81
2021/03/09 05:41:41;;;;;;;25.70;9.47;;;;;;;-1.60;76.83;100800.77;1781657;79;21008;-80
2021/03/09 05:44:07;;;;;;;28.23;10.53;;;;;;;-1.78;77.13;100793.73;1799009;78;21442;-80
2021/03/09 05:46:33;;;;;;;33.48;11.12;;;;;;;-1.96;77.86;100793.53;1826030;78;21140;-82
2021/03/09 05:48:59;;;;;;;27.13;10.67;;;;;;;-2.12;78.43;100793.75;1821825;78;20970;-80
2021/03/09 05:51:25;;;;;;;28.37;10.30;;;;;;;-2.09;78.82;100800.10;1815142;77;21125;-80
2021/03/09 05:53:51;;;;;;;32.33;11.47;;;;;;;-2.07;78.88;100800.88;1821800;77;21498;-81
2021/03/09 05:56:17;;;;;;;27.13;9.70;;;;;;;-1.98;78.81;100800.52;1821009;78;21058;-76
2021/03/09 05:58:43;;;;;;;25.73;9.70;;;;;;;-1.97;78.86;100797.05;1789393;79;20961;-76
2021/03/09 06:01:10;;;;;;;28.80;10.77;;;;;;;-1.84;78.77;100796.09;1798776;78;21004;-76
2021/03/09 06:03:36;;;;;;;24.12;9.75;;;;;;;-1.88;78.68;100799.27;1753878;80;21182;-79
2021/03/09 06:06:02;;;;;;;30.40;11.43;;;;;;;-1.78;78.63;100798.91;1802153;78;21024;-75
2021/03/09 06:08:29;;;;;;;28.33;11.20;;;;;;;-1.76;78.67;100798.39;1774751;79;21262;-76
2021/03/09 06:11:18;;;;;;;27.13;10.65;;;;;;;-1.76;78.62;100800.97;1768879;79;21232;-75
2021/03/09 06:13:44;;;;;;;26.70;10.28;;;;;;;-1.64;78.46;100807.79;1774133;79;21193;-76
2021/03/09 06:16:11;;;;;;;25.92;10.48;;;;;;;-1.57;78.31;100809.70;1772369;79;21165;-77
2021/03/09 06:18:37;;;;;;;26.70;10.08;;;;;;;-1.49;78.25;100813.24;1770180;79;21257;-75
2021/03/09 06:21:15;;;;;;;30.30;10.32;;;;;;;-1.46;78.05;100813.98;1771875;79;21343;-77
2021/03/09 06:23:42;;;;;;;27.32;10.88;;;;;;;-1.46;77.88;100813.98;1770681;79;21674;-75
2021/03/09 06:26:39;;;;;;;29.18;9.95;;;;;;;-1.25;77.85;100820.47;1779881;79;21216;-76
2021/03/09 06:29:16;;;;;;;;;;;;;;;-1.14;77.36;100822.16;1770192;79;21651;-76
2021/03/09 06:32:03;;;;;;;21.93;8.15;;;;;;;-0.98;76.82;100818.91;1772841;79;20392;-76
2021/03/09 06:34:33;;;;;;;19.25;8.18;;;;;;;-0.91;76.44;100821.64;1771724;79;22052;-75
2021/03/09 06:37:15;;;;;;;22.70;9.03;;;;;;;-0.81;76.17;100828.12;1774735;79;21202;-76
2021/03/09 06:40:06;;;;;;;22.93;8.40;;;;;;;-0.67;76.21;100833.15;1771412;79;21252;-76
2021/03/09 06:42:36;;;;;;;23.87;8.73;;;;;;;-0.55;75.57;100833.91;1772864;79;21232;-75
2021/03/09 06:45:10;;;;;;;22.85;8.75;;;;;;;-0.55;74.95;100836.50;1772859;79;21214;-75
2021/03/09 06:47:49;;;;;;;18.73;8.68;;;;;;;-0.43;74.68;100839.84;1772736;79;21212;-75
2021/03/09 06:50:21;;;;;;;25.62;8.35;;;;;;;-0.41;74.69;100841.91;1768117;79;21233;-75
2021/03/09 06:53:00;;;;;;;17.50;7.28;;;;;;;-0.28;74.65;100842.66;1752018;79;21205;-75
2021/03/09 06:55:34;;;;;;;17.65;6.33;;;;;;;-0.29;73.12;100843.59;1767897;79;21420;-75
2021/03/09 06:58:10;;;;;;;14.10;5.20;;;;;;;-0.19;71.70;100847.43;1743074;81;21660;-74
2021/03/09 07:00:36;;;;;;;12.93;4.47;;;;;;;-0.07;70.34;100843.44;1753575;81;21176;-73
2021/03/09 07:03:02;;;;;;;15.40;5.20;;;;;;;-0.01;70.22;100842.69;1748028;81;20999;-73
2021/03/09 07:05:27;;;;;;;13.67;5.80;;;;;;;0.11;70.60;100840.43;1753203;81;20947;-72
2021/03/09 07:07:53;;;;;;;15.27;5.83;;;;;;;0.15;70.26;100838.91;1789153;79;21030;-73
2021/03/09 07:10:20;;;;;;;16.70;5.63;;;;;;;0.29;71.16;100842.62;1786618;79;20998;-73
2021/03/09 07:12:48;;;;;;;16.30;5.10;;;;;;;0.39;70.10;100845.62;1785727;79;21919;-75
2021/03/09 07:15:19;;;;;;;15.43;4.85;;;;;;;0.40;68.42;100849.91;1782148;78;21193;-75
2021/03/09 07:17:50;;;;;;;14.75;4.90;;;;;;;0.39;67.44;100853.41;1783751;79;21395;-73
2021/03/09 07:20:15;;;;;;;10.50;4.35;;;;;;;0.37;66.40;100848.76;1775665;79;21243;-74
2021/03/09 07:22:42;;;;;;;15.98;5.37;;;;;;;0.46;65.80;100850.91;1785119;79;21204;-73
2021/03/09 07:25:16;;;;;;;13.83;5.27;;;;;;;0.44;66.37;100851.45;1780266;79;21217;-73
2021/03/09 07:27:50;;;;;;;15.32;5.72;;;;;;;0.40;66.89;100849.91;1785901;79;21194;-77
2021/03/09 07:30:18;;;;;;;14.10;4.70;;;;;;;0.43;66.63;100845.86;1784814;79;21165;-72
2021/03/09 07:32:54;;;;;;;14.30;5.00;;;;;;;0.45;65.84;100847.48;1779350;79;21215;-74
2021/03/09 07:35:24;;;;;;;16.48;4.83;;;;;;;0.74;64.27;100845.20;1789955;79;21145;-72
2021/03/09 07:37:51;;;;;;;12.07;4.60;;;;;;;0.76;63.13;100849.03;1787520;79;22232;-76
2021/03/09 07:40:20;;;;;;;14.23;4.72;;;;;;;0.81;63.20;100847.89;1790280;79;21184;-77
2021/03/09 07:42:46;;;;;;;24.23;5.50;;;;;;;0.76;63.42;100849.03;1783238;78;21172;-74
2021/03/09 07:45:17;;;;;;;16.27;5.20;;;;;;;0.63;62.86;100843.13;1783841;79;22863;-75
2021/03/09 07:47:55;;;;;;;10.80;4.33;;;;;;;0.60;63.42;100847.19;1791698;78;21158;-74
2021/03/09 07:50:22;;;;;;;15.90;4.90;;;;;;;0.77;62.65;100845.52;1775263;79;21333;-73
2021/03/09 07:53:13;;;;;;;11.55;3.95;;;;;;;0.75;61.40;100848.67;1785218;78;21190;-74
2021/03/09 07:55:43;;;;;;;12.73;4.03;;;;;;;0.72;61.62;100853.55;1789555;79;21584;-74
2021/03/09 07:58:23;;;;;;;10.72;4.00;;;;;;;0.86;61.73;100848.97;1784790;79;21177;-74
2021/03/09 08:00:59;;;;;;;12.65;4.00;;;;;;;0.92;60.26;100851.27;1789875;79;21176;-73
2021/03/09 08:03:30;;;;;;;9.53;3.97;;;;;;;0.99;60.70;100844.81;1793268;79;21197;-74
2021/03/09 08:06:08;;;;;;;15.48;4.95;;;;;;;1.02;59.91;100848.56;1788425;79;21210;-73
2021/03/09 08:08:50;;;;;;;16.12;4.95;;;;;;;1.01;58.88;100852.10;1786722;79;21190;-73
2021/03/09 08:11:25;;;;;;;8.60;3.50;;;;;;;1.07;55.70;100854.39;1784770;79;21177;-74
2021/03/09 08:14:08;;;;;;;5.55;2.58;;;;;;;1.07;55.70;100854.39;1789156;79;21205;-73
2021/03/09 08:16:42;;;;;;;7.25;2.60;;;;;;;0.95;55.39;100851.55;1786743;80;21157;-75
2021/03/09 08:19:27;;;;;;;10.38;3.12;;;;;;;1.00;54.92;100845.20;1781181;80;21604;-73
2021/03/09 08:21:58;;;;;;;11.28;3.47;;;;;;;1.11;55.84;100849.04;1787739;80;21224;-74
2021/03/09 08:24:48;;;;;;;9.80;3.52;;;;;;;1.01;54.96;100827.39;1775199;79;21139;-74
2021/03/09 08:27:33;;;;;;;7.42;3.27;;;;;;;1.23;55.82;100851.02;1784902;79;21158;-74
2021/03/09 08:30:25;;;;;;;13.62;3.50;;;;;;;1.31;55.12;100848.02;1776570;79;21779;-74
2021/03/09 08:32:50;;;;;;;12.30;3.33;;;;;;;1.28;53.89;100851.61;1784615;80;21241;-74
2021/03/09 08:35:22;;;;;;;13.77;4.20;;;;;;;1.29;54.97;100849.39;1786526;80;21337;-74
2021/03/09 08:37:49;;;;;;;12.70;4.17;;;;;;;1.32;54.77;100849.23;1785906;79;21213;-74
2021/03/09 08:40:20;;;;;;;17.12;4.58;;;;;;;1.30;54.83;100843.72;1788084;79;21266;-74
2021/03/09 08:43:04;;;;;;;12.28;4.72;;;;;;;1.29;54.62;100842.89;1786128;79;21966;-74
2021/03/09 08:45:44;;;;;;;10.05;4.62;;;;;;;1.50;55.83;100843.98;1783510;79;21134;-73
2021/03/09 08:48:11;;;;;;;14.73;4.87;;;;;;;1.23;54.43;100838.01;1779860;80;21240;-73
2021/03/09 08:50:47;;;;;;;10.17;3.83;;;;;;;1.35;54.50;100851.69;1788728;79;21189;-74
2021/03/09 08:53:31;;;;;;;12.20;4.35;;;;;;;1.43;53.30;100844.31;1784874;79;21308;-73
2021/03/09 08:55:59;;;;;;;12.98;4.42;;;;;;;1.43;53.30;100844.31;1785045;80;21161;-74
2021/03/09 08:58:25;;;;;;;14.40;4.50;;;;;;;1.37;52.64;100841.20;1777470;80;21224;-74
2021/03/09 09:00:51;;;;;;;15.72;4.75;;;;;;;1.31;53.22;100841.05;1785598;80;21229;-72
2021/03/09 09:03:37;;;;;;;11.23;4.33;;;;;;;1.28;53.62;100843.80;1777787;80;24741;-75
2021/03/09 09:06:03;;;;;;;10.47;3.93;;;;;;;1.64;55.58;100844.09;1787016;80;21590;-73
2021/03/09 09:08:29;;;;;;;17.87;4.53;;;;;;;1.64;55.58;100844.09;1788373;79;21290;-72
2021/03/09 09:10:56;;;;;;;10.88;4.10;;;;;;;1.63;53.07;100844.17;1792147;80;21401;-74
2021/03/09 09:13:31;;;;;;;11.30;3.77;;;;;;;1.69;53.55;100843.37;1788826;80;21142;-73
2021/03/09 09:15:57;;;;;;;14.20;4.28;;;;;;;1.71;52.50;100840.25;1788845;80;21584;-73
2021/03/09 09:18:23;;;;;;;12.93;3.98;;;;;;;1.76;52.77;100843.44;1788661;80;21205;-73
2021/03/09 09:20:49;;;;;;;11.93;3.97;;;;;;;1.80;52.49;100844.10;1788590;80;21351;-72
2021/03/09 09:23:19;;;;;;;11.93;3.77;;;;;;;1.82;52.01;100844.02;1788562;80;21158;-73
2021/03/09 09:25:48;;;;;;;8.23;3.33;;;;;;;1.45;50.27;100836.89;1782895;79;21188;-74
2021/03/09 09:28:30;;;;;;;11.22;3.65;;;;;;;1.46;49.77;100829.45;1794918;79;21165;-75
2021/03/09 09:30:58;;;;;;;13.72;3.65;;;;;;;1.56;50.69;100833.25;1806842;79;21194;-74
2021/03/09 09:33:24;;;;;;;11.00;3.77;;;;;;;1.54;50.93;100825.97;1801627;79;22407;-75
2021/03/09 09:35:50;;;;;;;12.05;4.10;;;;;;;1.67;51.29;100828.31;1799583;79;21208;-76
2021/03/09 09:38:17;;;;;;;12.95;3.80;;;;;;;1.73;51.34;100833.19;1800366;79;21219;-75
2021/03/09 09:40:58;;;;;;;9.95;3.92;;;;;;;1.89;52.24;100828.45;1798366;79;21449;-75
2021/03/09 09:43:28;;;;;;;19.73;4.10;;;;;;;2.03;51.71;100829.83;1787254;79;21689;-74
2021/03/09 09:46:05;;;;;;;8.68;3.37;;;;;;;2.00;50.58;100836.98;1786593;79;21627;-80
2021/03/09 09:48:39;;;;;;;11.25;2.90;;;;;;;2.08;49.23;100839.56;1792133;79;21762;-78
2021/03/09 09:51:08;;;;;;;6.35;2.87;;;;;;;2.13;48.14;100832.32;1787119;79;21192;-80
2021/03/09 09:53:37;;;;;;;10.93;3.08;;;;;;;2.10;48.58;100829.88;1786018;79;21182;-80
2021/03/09 09:56:06;;;;;;;14.20;3.70;;;;;;;2.13;48.76;100827.11;1791408;79;21215;-78
2021/03/09 09:58:49;;;;;;;8.25;3.35;;;;;;;2.09;48.14;100829.97;1790848;79;21220;-77
2021/03/09 10:01:36;;;;;;;8.25;3.20;;;;;;;2.14;48.59;100828.80;1791748;79;21160;-80
2021/03/09 10:04:16;;;;;;;8.38;3.35;;;;;;;2.07;47.18;100827.45;1785629;79;21165;-77
2021/03/09 10:06:46;;;;;;;8.93;3.45;;;;;;;2.17;47.75;100829.55;1785550;79;21149;-79
2021/03/09 10:09:17;;;;;;;9.75;3.02;;;;;;;2.07;47.95;100823.55;1787392;79;21102;-79
2021/03/09 10:11:52;;;;;;;8.80;3.10;;;;;;;2.03;46.12;100824.63;1783527;78;21166;-79
2021/03/09 10:14:21;;;;;;;10.55;3.60;;;;;;;2.17;47.35;100821.73;1790857;79;21133;-77
2021/03/09 10:16:47;;;;;;;6.92;3.47;;;;;;;2.23;46.77;100822.22;1793896;79;21610;-78
2021/03/09 10:19:18;;;;;;;9.08;3.22;;;;;;;2.28;47.46;100816.75;1787701;79;21567;-78
2021/03/09 10:21:46;;;;;;;8.30;3.30;;;;;;;2.30;47.49;100813.58;1789973;79;21668;-77
2021/03/09 10:24:28;;;;;;;11.55;3.98;;;;;;;2.38;46.12;100810.10;1792385;79;21705;-79
2021/03/09 10:26:55;;;;;;;9.83;4.08;;;;;;;2.48;45.69;100816.92;1789076;79;21429;-73
2021/03/09 10:29:22;;;;;;;12.93;3.90;;;;;;;2.67;46.43;100815.39;1799039;79;21192;-73
2021/03/09 10:31:52;;;;;;;12.33;4.00;;;;;;;2.76;46.30;100810.95;1776461;79;21129;-72
2021/03/09 10:34:42;;;;;;;14.73;4.45;;;;;;;2.84;46.18;100814.41;1778471;79;21152;-74
2021/03/09 10:37:12;;;;;;;11.40;3.75;;;;;;;2.79;46.29;100813.37;1798029;79;21263;-73
2021/03/09 10:39:40;;;;;;;10.95;4.40;;;;;;;2.75;45.68;100815.81;1795187;79;21138;-72
2021/03/09 10:42:32;;;;;;;10.00;4.20;;;;;;;2.43;45.79;100810.67;1769807;79;21230;-72
2021/03/09 10:45:19;;;;;;;12.23;4.55;;;;;;;2.40;45.74;100809.54;1796420;79;21145;-72
2021/03/09 10:48:04;;;;;;;11.57;4.25;;;;;;;2.22;46.23;100810.58;1798270;79;21177;-73
2021/03/09 10:50:30;;;;;;;13.15;4.50;;;;;;;2.38;46.91;100809.23;1759974;79;21225;-73
2021/03/09 10:52:55;;;;;;;13.78;4.53;;;;;;;2.62;46.63;100814.83;1795618;79;21153;-74
2021/03/09 10:55:23;;;;;;;12.82;4.67;;;;;;;2.66;46.28;100805.91;1799013;79;21185;-73
2021/03/09 10:57:49;;;;;;;11.30;3.45;;;;;;;2.76;44.80;100804.43;1793447;79;21202;-73
2021/03/09 11:00:19;;;;;;;11.37;3.80;;;;;;;2.78;43.58;100813.03;1789264;78;25681;-73
2021/03/09 11:02:45;;;;;;;10.95;3.85;;;;;;;2.81;43.06;100805.02;1786848;79;22076;-73
2021/03/09 11:05:12;;;;;;;11.33;3.70;;;;;;;2.85;44.05;100801.76;1782991;79;21212;-72
2021/03/09 11:07:38;;;;;;;10.50;4.80;;;;;;;2.98;44.95;100803.17;1789832;79;21153;-73
2021/03/09 11:10:07;;;;;;;10.00;4.15;;;;;;;3.04;43.44;100805.41;1788061;79;21662;-76
2021/03/09 11:12:33;;;;;;;8.18;3.47;;;;;;;3.13;43.49;100798.81;1787342;79;21177;-75
2021/03/09 11:14:59;;;;;;;9.83;3.63;;;;;;;3.24;42.35;100796.39;1793285;79;21255;-72
2021/03/09 11:17:25;;;;;;;11.17;3.40;;;;;;;3.14;41.69;100796.12;1787698;79;23446;-75
2021/03/09 11:19:50;;;;;;;8.77;3.83;;;;;;;3.13;41.26;100795.73;1784042;79;20986;-75
2021/03/09 11:22:17;;;;;;;11.95;3.70;;;;;;;3.10;42.56;100796.39;1781527;79;27043;-72
2021/03/09 11:24:42;;;;;;;7.40;3.80;;;;;;;3.23;42.70;100790.34;1793233;79;21209;-72
2021/03/09 11:27:09;;;;;;;13.40;3.87;;;;;;;3.35;42.95;100790.52;1792738;79;23492;-74
2021/03/09 11:29:35;;;;;;;8.23;3.67;;;;;;;3.23;42.17;100790.34;1792111;79;21170;-73
2021/03/09 11:32:01;;;;;;;12.50;3.97;;;;;;;3.36;43.45;100790.91;1791381;79;21432;-72
2021/03/09 11:34:27;;;;;;;11.30;3.90;;;;;;;3.43;42.75;100788.27;1788826;79;27304;-75
2021/03/09 11:36:53;;;;;;;9.20;3.77;;;;;;;3.50;42.01;100786.97;1795236;79;25092;-73